Darstellungsparameter: Aktuell verwendete Einstellungen:
Skalierung der Graphiken ... ?
xyx+y,   Skalierungsfaktor:      Skalierung: Modus: x, Faktor: 1
Darstellungszeitraum ... ?
Vom - - bis: - -   Zeitraum: 31.05.2010 - 01.06.2010
Min/Max/Avg-Anzeige ... ?
Zeige MMA aktuell
Zeige MMA Monat
Zeige MMA alles
Zeige --A aktuell
Zeige --A Monat
Zeige --A alles
Keine MMA-Anzeige
MMA:
Minimum Maximum Average (ber die Originaldaten)
MMA-Basis: 14.04.2020 - 16.05.2020
Quicknavigation für Darstellung... ?
Tage:      1T, 2T, 3T, 5T -1T -2T -3T -5T +1T +2T +3T +5T
Wochen: 1W, 2W, 3W -1W -2W -3W +1W +2W +3W
Monate: 1M, 3M, 6M -1M -3M -6M +1M +3M +6M
Jahre:    1J, 3J, 5J, 10J -1J -3J -5J -10J +1J +3J +5J +10J
Nutze für die Darstellung ... ?
Originaldaten oder Mittelwerte auf ...
Stundenbasis Tagesbasis Wochenbasis
Monatsbasis Jahresbasis      Datenbasis: Original-Daten
Darstellen als:
Statistik (Auto) Statistik J:M      Darstellung:
Zur Graphik,    zurück zur Übersicht aller Sensoren.
 
Tabellarische Datenbersicht: ?
 
Sensor: Nr:Datum:Temp:Abs-Feuchte:Windchill:Wind:
Aussen-T/F 1 31-05-2010 00:10:03 10.1 C 5.86 g/m*3 10.1 C 0 km/h
2 31-05-2010 00:22:03 9.8 C 5.85 g/m*3 9.8 C 0 km/h
3 31-05-2010 00:34:03 9.8 C 5.75 g/m*3 9.8 C 0 km/h
4 31-05-2010 00:46:04 9.8 C 5.85 g/m*3 9.8 C 0 km/h
5 31-05-2010 00:58:04 9.9 C 5.98 g/m*3 9.9 C 0 km/h
6 31-05-2010 01:10:04 10.1 C 5.77 g/m*3 10.1 C 0 km/h
7 31-05-2010 01:22:04 10 C 5.92 g/m*3 10 C 0 km/h
8 31-05-2010 01:34:04 9.8 C 6.22 g/m*3 9.8 C 0 km/h
9 31-05-2010 01:46:04 9.8 C 6.31 g/m*3 9.8 C 0 km/h
10 31-05-2010 01:58:04 9.5 C 6.64 g/m*3 9.5 C 0 km/h
11 31-05-2010 02:10:04 9.1 C 7.01 g/m*3 9.1 C 0 km/h
12 31-05-2010 02:22:04 8.9 C 7.36 g/m*3 8.9 C 0 km/h
13 31-05-2010 02:34:04 8.9 C 7.62 g/m*3 8.9 C 0 km/h
14 31-05-2010 02:46:04 8.9 C 7.71 g/m*3 8.9 C 0 km/h
15 31-05-2010 02:58:04 8.9 C 7.8 g/m*3 8.9 C 0 km/h
16 31-05-2010 03:10:04 8.7 C 7.7 g/m*3 8.7 C 0 km/h
17 31-05-2010 03:22:04 8.7 C 7.78 g/m*3 8.7 C 0 km/h
18 31-05-2010 03:34:04 8.6 C 7.73 g/m*3 8.6 C 0 km/h
19 31-05-2010 03:46:04 8.6 C 7.82 g/m*3 8.6 C 0 km/h
20 31-05-2010 03:58:04 8.5 C 7.68 g/m*3 8.5 C 0 km/h
21 31-05-2010 04:10:04 8.4 C 7.63 g/m*3 8.4 C 0 km/h
22 31-05-2010 04:22:04 8.5 C 7.77 g/m*3 8.5 C 0 km/h
23 31-05-2010 04:34:04 8.4 C 7.63 g/m*3 8.4 C 0 km/h
24 31-05-2010 04:46:05 8.6 C 7.73 g/m*3 8.6 C 0 km/h
25 31-05-2010 04:58:05 8.7 C 7.78 g/m*3 8.7 C 0 km/h
Sensor: Nr:Datum:Temp:Abs-Feuchte:Windchill:Wind:
Aussen-T/F 26 31-05-2010 05:10:05 8.6 C 7.73 g/m*3 8.6 C 0 km/h
27 31-05-2010 05:22:05 8.5 C 7.68 g/m*3 8.5 C 0 km/h
28 31-05-2010 05:34:05 8.5 C 7.68 g/m*3 8.5 C 0 km/h
29 31-05-2010 05:46:05 8.5 C 7.68 g/m*3 8.5 C 0 km/h
30 31-05-2010 05:58:05 8.6 C 7.73 g/m*3 8.6 C 0 km/h
31 31-05-2010 06:10:05 8.6 C 7.73 g/m*3 8.6 C 0 km/h
32 31-05-2010 06:22:05 8.7 C 7.87 g/m*3 8.7 C 0 km/h
33 31-05-2010 06:34:05 8.7 C 7.87 g/m*3 8.7 C 0 km/h
34 31-05-2010 06:46:02 8.7 C 7.96 g/m*3 8.7 C 0 km/h
35 31-05-2010 06:58:02 8.9 C 8.06 g/m*3 8.9 C 0 km/h
36 31-05-2010 07:10:02 8.9 C 8.06 g/m*3 8.9 C 0 km/h
37 31-05-2010 07:22:01 8.8 C 8.01 g/m*3 8.8 C 0 km/h
38 31-05-2010 07:34:02 8.9 C 8.15 g/m*3 8.9 C 0 km/h
39 31-05-2010 07:46:02 9 C 8.11 g/m*3 9 C 0 km/h
40 31-05-2010 07:58:02 9.1 C 8.16 g/m*3 9.1 C 0 km/h
41 31-05-2010 08:10:02 9.3 C 8.36 g/m*3 9.3 C 0 km/h
42 31-05-2010 08:22:02 9.7 C 8.57 g/m*3 9.7 C 0 km/h
43 31-05-2010 08:34:02 10 C 8.55 g/m*3 10 C 0 km/h
44 31-05-2010 08:46:02 10.1 C 8.51 g/m*3 10.1 C 0 km/h
45 31-05-2010 08:58:02 10.3 C 8.52 g/m*3 10.3 C 0 km/h
46 31-05-2010 09:10:02 10.7 C 8.55 g/m*3 10.7 C 0 km/h
47 31-05-2010 09:22:02 10.8 C 8.4 g/m*3 10.8 C 0 km/h
48 31-05-2010 09:34:02 10.8 C 8.3 g/m*3 10.8 C 0 km/h
49 31-05-2010 09:46:02 10.7 C 8.25 g/m*3 10.7 C 0 km/h
50 31-05-2010 09:58:02 11 C 8.41 g/m*3 11 C 0 km/h
Sensor: Nr:Datum:Temp:Abs-Feuchte:Windchill:Wind:
Aussen-T/F 51 31-05-2010 10:10:02 10.9 C 8.36 g/m*3 10.9 C 0 km/h
52 31-05-2010 10:22:02 10.9 C 8.26 g/m*3 10.9 C 0 km/h
53 31-05-2010 10:34:02 11 C 8.31 g/m*3 11 C 0 km/h
54 31-05-2010 10:46:02 11.3 C 8.47 g/m*3 11.3 C 0 km/h
55 31-05-2010 10:58:02 11.2 C 8.31 g/m*3 11.2 C 0 km/h
56 31-05-2010 11:10:02 11.5 C 8.47 g/m*3 11.5 C 0 km/h
57 31-05-2010 11:22:02 11.6 C 8.32 g/m*3 11.6 C 0 km/h
58 31-05-2010 11:34:02 11.8 C 8.42 g/m*3 11.8 C 0 km/h
59 31-05-2010 11:46:02 12.4 C 8.41 g/m*3 12.4 C 0 km/h
60 31-05-2010 11:58:02 12.5 C 8.14 g/m*3 12.5 C 0 km/h
61 31-05-2010 12:10:02 12.6 C 7.74 g/m*3 12.6 C 0 km/h
62 31-05-2010 12:22:02 14.2 C 8.06 g/m*3 14.2 C 0 km/h
63 31-05-2010 12:34:02 14.2 C 7.45 g/m*3 14.2 C 0 km/h
64 31-05-2010 12:46:02 14.2 C 7.57 g/m*3 14.2 C 0 km/h
65 31-05-2010 12:58:02 13.7 C 7.34 g/m*3 13.7 C 0 km/h
66 31-05-2010 13:10:02 14 C 7.24 g/m*3 14 C 0 km/h
67 31-05-2010 13:22:02 15.8 C 7.67 g/m*3 15.8 C 0 km/h
68 31-05-2010 13:34:01 14.7 C 7.3 g/m*3 14.7 C 0 km/h
69 31-05-2010 13:46:02 13.6 C 7.18 g/m*3 13.6 C 0 km/h
70 31-05-2010 13:58:02 13.5 C 7.25 g/m*3 13.5 C 0 km/h
71 31-05-2010 14:10:01 14 C 7.36 g/m*3 14 C 0 km/h
72 31-05-2010 14:22:02 14.7 C 7.43 g/m*3 14.7 C 0 km/h
73 31-05-2010 14:34:01 15.4 C 7.23 g/m*3 15.4 C 0 km/h
74 31-05-2010 14:46:01 15.7 C 7.36 g/m*3 15.7 C 0 km/h
75 31-05-2010 14:58:01 15 C 7.18 g/m*3 15 C 0 km/h
Sensor: Nr:Datum:Temp:Abs-Feuchte:Windchill:Wind:
Aussen-T/F 76 31-05-2010 15:10:01 15 C 7.31 g/m*3 15 C 0 km/h
77 31-05-2010 15:22:02 14.8 C 7.35 g/m*3 14.8 C 0 km/h
78 31-05-2010 15:34:01 14.9 C 7.52 g/m*3 14.9 C 0 km/h
79 31-05-2010 15:46:03 14.7 C 7.81 g/m*3 14.7 C 0 km/h
80 31-05-2010 15:58:03 14.4 C 7.79 g/m*3 14.4 C 0 km/h
81 31-05-2010 16:10:02 14.2 C 8.06 g/m*3 14.2 C 0 km/h
82 31-05-2010 16:22:02 13.8 C 7.98 g/m*3 13.8 C 0 km/h
83 31-05-2010 16:34:02 13.8 C 8.1 g/m*3 13.8 C 0 km/h
84 31-05-2010 16:46:02 13.9 C 8.27 g/m*3 13.9 C 0 km/h
85 31-05-2010 16:58:02 14.1 C 8.01 g/m*3 14.1 C 0 km/h
86 31-05-2010 17:10:02 14.3 C 7.86 g/m*3 14.3 C 0 km/h
87 31-05-2010 17:22:02 14.4 C 7.54 g/m*3 14.4 C 0 km/h
88 31-05-2010 17:34:01 14.4 C 7.79 g/m*3 14.4 C 0 km/h
89 31-05-2010 17:46:02 14.3 C 7.99 g/m*3 14.3 C 0 km/h
90 31-05-2010 17:58:02 13.5 C 8.42 g/m*3 13.5 C 0 km/h
91 31-05-2010 18:10:01 13.2 C 8.73 g/m*3 13.2 C 0 km/h
92 31-05-2010 18:22:02 12.7 C 8.79 g/m*3 12.7 C 0 km/h
93 31-05-2010 18:34:01 12.9 C 8.68 g/m*3 12.9 C 0 km/h
94 31-05-2010 18:46:02 13.4 C 8.6 g/m*3 13.4 C 0 km/h
95 31-05-2010 18:58:02 13.3 C 8.66 g/m*3 13.3 C 0 km/h
96 31-05-2010 19:10:02 13 C 8.96 g/m*3 13 C 0 km/h
97 31-05-2010 19:22:02 12.8 C 9.18 g/m*3 12.8 C 0 km/h
98 31-05-2010 19:34:02 12.7 C 9.35 g/m*3 12.7 C 0 km/h
99 31-05-2010 19:46:02 12.6 C 9.4 g/m*3 12.6 C 0 km/h
100 31-05-2010 19:58:02 12.4 C 9.29 g/m*3 12.4 C 0 km/h
Sensor: Nr:Datum:Temp:Abs-Feuchte:Windchill:Wind:
Aussen-T/F 101 31-05-2010 20:10:01 12.4 C 9.4 g/m*3 12.4 C 0 km/h
102 31-05-2010 20:22:01 12.5 C 9.46 g/m*3 12.5 C 0 km/h
103 31-05-2010 20:34:02 12.5 C 9.57 g/m*3 12.5 C 0 km/h
104 31-05-2010 20:46:02 12.5 C 9.57 g/m*3 12.5 C 0 km/h
105 31-05-2010 20:58:02 12.5 C 9.57 g/m*3 12.5 C 0 km/h
106 31-05-2010 21:10:03 12.5 C 9.57 g/m*3 12.5 C 0 km/h
107 31-05-2010 21:22:02 12.6 C 9.62 g/m*3 12.6 C 0 km/h
108 31-05-2010 21:34:02 12.5 C 9.46 g/m*3 12.5 C 0 km/h
109 31-05-2010 21:46:02 12.5 C 9.57 g/m*3 12.5 C 0 km/h
110 31-05-2010 21:58:02 12.4 C 9.51 g/m*3 12.4 C 0 km/h
111 31-05-2010 22:10:01 12.4 C 9.62 g/m*3 12.4 C 0 km/h
112 31-05-2010 22:23:01 12.5 C 9.68 g/m*3 12.5 C 0 km/h
113 31-05-2010 22:35:01 12.5 C 9.78 g/m*3 12.5 C 0 km/h
114 31-05-2010 22:47:01 12.6 C 9.85 g/m*3 12.6 C 0 km/h
115 31-05-2010 22:59:01 12.7 C 9.91 g/m*3 12.7 C 0 km/h
116 31-05-2010 23:11:01 12.7 C 9.8 g/m*3 12.7 C 0 km/h
117 31-05-2010 23:23:01 12.7 C 9.8 g/m*3 12.7 C 0 km/h
118 31-05-2010 23:35:01 12.7 C 9.8 g/m*3 12.7 C 0 km/h
119 31-05-2010 23:47:02 12.6 C 9.74 g/m*3 12.6 C 0 km/h
120 31-05-2010 23:59:02 12.4 C 9.62 g/m*3 12.4 C 0 km/h
121 01-06-2010 00:11:02 11.9 C 9.43 g/m*3 11.9 C 0 km/h
122 01-06-2010 00:23:02 11.8 C 9.47 g/m*3 11.8 C 0 km/h
123 01-06-2010 00:35:02 11.5 C 9.3 g/m*3 11.5 C 0 km/h
124 01-06-2010 00:47:02 11.7 C 9.41 g/m*3 11.7 C 0 km/h
125 01-06-2010 00:59:02 11.6 C 9.46 g/m*3 11.6 C 0 km/h
Sensor: Nr:Datum:Temp:Abs-Feuchte:Windchill:Wind:
Aussen-T/F 126 01-06-2010 01:11:02 11.5 C 9.5 g/m*3 11.5 C 0 km/h
127 01-06-2010 01:23:02 11.6 C 9.56 g/m*3 11.6 C 0 km/h
128 01-06-2010 01:35:02 11.7 C 9.62 g/m*3 11.7 C 0 km/h
129 01-06-2010 01:47:02 11.2 C 9.33 g/m*3 11.2 C 0 km/h
130 01-06-2010 01:59:02 11.2 C 9.33 g/m*3 11.2 C 0 km/h
131 01-06-2010 02:11:02 11 C 9.21 g/m*3 11 C 0 km/h
132 01-06-2010 02:23:02 10.9 C 9.25 g/m*3 10.9 C 0 km/h
133 01-06-2010 02:35:02 10.8 C 9.19 g/m*3 10.8 C 0 km/h
134 01-06-2010 02:47:02 10.8 C 9.19 g/m*3 10.8 C 0 km/h
135 01-06-2010 02:59:02 11.1 C 9.37 g/m*3 11.1 C 0 km/h
136 01-06-2010 03:11:02 11.3 C 9.49 g/m*3 11.3 C 0 km/h
137 01-06-2010 03:23:02 11.4 C 9.65 g/m*3 11.4 C 0 km/h
138 01-06-2010 03:35:02 11.4 C 9.65 g/m*3 11.4 C 0 km/h
139 01-06-2010 03:47:02 11.4 C 9.65 g/m*3 11.4 C 0 km/h
140 01-06-2010 03:59:03 11.4 C 9.65 g/m*3 11.4 C 0 km/h
141 01-06-2010 04:11:03 11.8 C 9.79 g/m*3 11.8 C 0 km/h
142 01-06-2010 04:23:03 11.2 C 9.43 g/m*3 11.2 C 0 km/h
143 01-06-2010 04:35:03 11 C 9.31 g/m*3 11 C 0 km/h
144 01-06-2010 04:47:03 10.5 C 9.02 g/m*3 10.5 C 0 km/h
145 01-06-2010 04:59:03 10.8 C 9.19 g/m*3 10.8 C 0 km/h
146 01-06-2010 05:11:03 11 C 9.31 g/m*3 11 C 0 km/h
147 01-06-2010 05:23:03 11.2 C 9.53 g/m*3 11.2 C 0 km/h
148 01-06-2010 05:35:03 11.2 C 9.43 g/m*3 11.2 C 0 km/h
149 01-06-2010 05:47:03 11.3 C 9.49 g/m*3 11.3 C 0 km/h
150 01-06-2010 05:59:03 11.2 C 9.43 g/m*3 11.2 C 0 km/h
Sensor: Nr:Datum:Temp:Abs-Feuchte:Windchill:Wind:
Aussen-T/F 151 01-06-2010 06:11:03 11.3 C 9.49 g/m*3 11.3 C 0 km/h
152 01-06-2010 06:23:03 11.3 C 9.38 g/m*3 11.3 C 0 km/h
153 01-06-2010 06:35:03 11.2 C 9.33 g/m*3 11.2 C 0 km/h
154 01-06-2010 06:47:03 11.1 C 9.17 g/m*3 11.1 C 0 km/h
155 01-06-2010 06:59:03 11.2 C 9.12 g/m*3 11.2 C 0 km/h
156 01-06-2010 07:11:02 11.4 C 9.24 g/m*3 11.4 C 0 km/h
157 01-06-2010 07:23:01 11.7 C 9.31 g/m*3 11.7 C 0 km/h
158 01-06-2010 07:35:02 12 C 9.38 g/m*3 12 C 0 km/h
159 01-06-2010 07:47:02 12.4 C 9.4 g/m*3 12.4 C 0 km/h
160 01-06-2010 07:59:02 12.7 C 9.35 g/m*3 12.7 C 0 km/h
161 01-06-2010 08:11:02 12.9 C 9.35 g/m*3 12.9 C 0 km/h
162 01-06-2010 08:23:01 13.6 C 9.53 g/m*3 13.6 C 0 km/h
163 01-06-2010 08:35:02 13.9 C 9.35 g/m*3 13.9 C 0 km/h
164 01-06-2010 08:47:01 14.2 C 9.16 g/m*3 14.2 C 0 km/h
165 01-06-2010 08:59:01 13.8 C 9.17 g/m*3 13.8 C 0 km/h
166 01-06-2010 09:11:02 14.3 C 9.09 g/m*3 14.3 C 0 km/h
167 01-06-2010 09:23:02 14.7 C 9.07 g/m*3 14.7 C 0 km/h
168 01-06-2010 09:35:02 15.2 C 9.22 g/m*3 15.2 C 0 km/h
169 01-06-2010 09:47:01 15 C 8.59 g/m*3 15 C 0 km/h
170 01-06-2010 09:59:01 15.8 C 8.62 g/m*3 15.8 C 0 km/h
171 01-06-2010 10:11:02 15.3 C 8.36 g/m*3 15.3 C 0 km/h
172 01-06-2010 10:23:02 14.5 C 8.58 g/m*3 14.5 C 0 km/h
173 01-06-2010 10:35:01 14.5 C 8.83 g/m*3 14.5 C 0 km/h
174 01-06-2010 10:47:02 15.7 C 8.83 g/m*3 15.7 C 0 km/h
175 01-06-2010 10:59:02 15.4 C 8.54 g/m*3 15.4 C 0 km/h
Sensor: Nr:Datum:Temp:Abs-Feuchte:Windchill:Wind:
Aussen-T/F 176 01-06-2010 11:11:01 16.1 C 8.64 g/m*3 16.1 C 0 km/h
177 01-06-2010 11:23:02 17.2 C 8.49 g/m*3 17.2 C 0 km/h
178 01-06-2010 11:35:01 16.7 C 7.96 g/m*3 16.7 C 0 km/h
179 01-06-2010 11:47:02 17.6 C 8.1 g/m*3 17.6 C 0 km/h
180 01-06-2010 11:59:02 17.8 C 7.59 g/m*3 17.8 C 0 km/h
181 01-06-2010 12:11:02 18.8 C 7.89 g/m*3 18.8 C 0 km/h
182 01-06-2010 12:23:02 18.9 C 7.45 g/m*3 18.9 C 0 km/h
183 01-06-2010 12:35:03 19.3 C 6.63 g/m*3 19.3 C 0 km/h
184 01-06-2010 12:47:02 20.6 C 7.34 g/m*3 20.6 C 0 km/h
185 01-06-2010 12:59:03 19.5 C 6.71 g/m*3 19.5 C 0 km/h
186 01-06-2010 13:11:01 19.7 C 6.79 g/m*3 19.7 C 0 km/h
187 01-06-2010 13:23:02 20.9 C 6.92 g/m*3 20.9 C 0 km/h
188 01-06-2010 13:35:02 21.6 C 6.83 g/m*3 21.6 C 0 km/h
189 01-06-2010 13:47:02 20.4 C 6.19 g/m*3 20.4 C 0 km/h
190 01-06-2010 13:59:02 20.3 C 6.68 g/m*3 20.3 C 0 km/h
191 01-06-2010 14:11:03 19.8 C 6.66 g/m*3 19.8 C 0 km/h
192 01-06-2010 14:23:02 20.5 C 7.12 g/m*3 20.5 C 0 km/h
193 01-06-2010 14:35:02 21 C 6.05 g/m*3 21 C 0 km/h
194 01-06-2010 14:47:01 22 C 6.02 g/m*3 22 C 0 km/h
195 01-06-2010 14:59:01 21.6 C 5.88 g/m*3 21.6 C 0 km/h
196 01-06-2010 15:11:02 20.8 C 5.61 g/m*3 20.8 C 0 km/h
197 01-06-2010 15:23:01 21.2 C 5.37 g/m*3 21.2 C 0 km/h
198 01-06-2010 15:35:01 22.2 C 5.1 g/m*3 22.2 C 0 km/h
199 01-06-2010 15:47:01 23.8 C 5.38 g/m*3 23.8 C 0 km/h
200 01-06-2010 15:59:01 22.7 C 5.25 g/m*3 22.7 C 0 km/h
Sensor: Nr:Datum:Temp:Abs-Feuchte:Windchill:Wind:
Aussen-T/F 201 01-06-2010 16:11:02 22.3 C 4.54 g/m*3 22.3 C 0 km/h
202 01-06-2010 16:23:01 22.7 C 5.05 g/m*3 22.7 C 0 km/h
203 01-06-2010 16:35:01 22.7 C 5.05 g/m*3 22.7 C 0 km/h
204 01-06-2010 16:47:01 22.7 C 5.05 g/m*3 22.7 C 0 km/h
205 01-06-2010 16:59:01 23.6 C 5.1 g/m*3 23.6 C 0 km/h
206 01-06-2010 17:11:02 23.3 C 5.23 g/m*3 23.3 C 0 km/h
207 01-06-2010 17:23:02 22.8 C 5.89 g/m*3 22.8 C 0 km/h
208 01-06-2010 17:35:01 22.7 C 5.25 g/m*3 22.7 C 0 km/h
209 01-06-2010 17:47:01 22.4 C 5.16 g/m*3 22.4 C 0 km/h
210 01-06-2010 17:59:01 21.3 C 4.85 g/m*3 21.3 C 0 km/h
211 01-06-2010 18:11:01 20.7 C 4.68 g/m*3 20.7 C 0 km/h
212 01-06-2010 18:23:02 20.4 C 4.95 g/m*3 20.4 C 0 km/h
213 01-06-2010 18:35:01 20.7 C 4.86 g/m*3 20.7 C 0 km/h
214 01-06-2010 18:47:03 20.6 C 5.37 g/m*3 20.6 C 0 km/h
215 01-06-2010 18:59:03 20.4 C 5.66 g/m*3 20.4 C 0 km/h
216 01-06-2010 19:11:02 20.1 C 5.74 g/m*3 20.1 C 0 km/h
217 01-06-2010 19:23:02 19.7 C 6.11 g/m*3 19.7 C 0 km/h
218 01-06-2010 19:35:02 19.5 C 6.38 g/m*3 19.5 C 0 km/h
219 01-06-2010 19:47:02 19.3 C 6.14 g/m*3 19.3 C 0 km/h
220 01-06-2010 19:59:02 19.1 C 6.07 g/m*3 19.1 C 0 km/h
221 01-06-2010 20:11:02 18.9 C 6.8 g/m*3 18.9 C 0 km/h
222 01-06-2010 20:23:02 18.7 C 7.04 g/m*3 18.7 C 0 km/h
223 01-06-2010 20:35:02 18.2 C 6.99 g/m*3 18.2 C 0 km/h
224 01-06-2010 20:47:02 17.8 C 7.29 g/m*3 17.8 C 0 km/h
225 01-06-2010 20:59:03 17.4 C 7.11 g/m*3 17.4 C 0 km/h
Sensor: Nr:Datum:Temp:Abs-Feuchte:Windchill:Wind:
Aussen-T/F 226 01-06-2010 21:11:01 16.8 C 7.15 g/m*3 16.8 C 0 km/h
227 01-06-2010 21:23:01 16.6 C 7.2 g/m*3 16.6 C 0 km/h
228 01-06-2010 21:35:02 16.1 C 7.13 g/m*3 16.1 C 0 km/h
229 01-06-2010 21:47:02 15.8 C 7 g/m*3 15.8 C 0 km/h
230 01-06-2010 21:59:02 15.5 C 7.01 g/m*3 15.5 C 0 km/h
231 01-06-2010 22:11:02 15.3 C 7.18 g/m*3 15.3 C 0 km/h
232 01-06-2010 22:23:02 15.1 C 7.22 g/m*3 15.1 C 0 km/h
233 01-06-2010 22:35:02 15 C 7.31 g/m*3 15 C 0 km/h
234 01-06-2010 22:47:02 14.9 C 7.52 g/m*3 14.9 C 0 km/h
235 01-06-2010 22:59:02 14.9 C 7.65 g/m*3 14.9 C 0 km/h
236 01-06-2010 23:11:02 14.8 C 7.73 g/m*3 14.8 C 0 km/h
237 01-06-2010 23:23:02 14.8 C 7.6 g/m*3 14.8 C 0 km/h
238 01-06-2010 23:35:02 14.8 C 7.73 g/m*3 14.8 C 0 km/h
239 01-06-2010 23:47:01 14.7 C 7.81 g/m*3 14.7 C 0 km/h
240 01-06-2010 23:59:01 14.6 C 7.88 g/m*3 14.6 C 0 km/h

Legende:
   Min
   Max


Maximal/Minimal-Werte vom 14.04.2020 - 16.05.2020

Sensor Min Max Avg
Temp
(Aussen-T/F)
-0.1 °C
15-04-2020  06:55:00
26.2 °C
17-04-2020  18:05:00
11.98 °C

Die Daten stammen von einer Davis Vantage Pro 2 Wetter-Station und werden unter Linux mit der Software wview2wettercgi und aufbereitet. Alle Angaben erfolgen ohne Gewähr für ihre Vollständigkeit oder Richtigkeit.
Kontakt: Rainer Krienke krienke@uni-koblenz.de . Meine Webseiten an der Uni Koblenz oder privat.
Version: $Revision: 0.78 $